createdAt,value
2023-05-04T00:01:11.606Z,6.80
2023-05-04T00:03:40.188Z,6.80
2023-05-04T00:06:08.202Z,6.70
2023-05-04T00:08:39.012Z,6.70
2023-05-04T00:11:07.045Z,6.50
2023-05-04T00:13:36.581Z,6.60
2023-05-04T00:16:13.253Z,6.70
2023-05-04T00:18:43.209Z,6.60
2023-05-04T00:21:22.203Z,6.60
2023-05-04T00:23:52.379Z,6.50
2023-05-04T00:26:24.455Z,6.50
2023-05-04T00:31:48.364Z,6.30
2023-05-04T00:34:17.021Z,6.40
2023-05-04T00:36:44.468Z,6.40
2023-05-04T00:39:12.166Z,6.10
2023-05-04T00:41:46.213Z,6.40
2023-05-04T00:44:13.554Z,6.30
2023-05-04T00:46:44.489Z,6.30
2023-05-04T00:49:21.991Z,6.30
2023-05-04T00:51:51.315Z,6.30
2023-05-04T00:54:20.353Z,6.40
2023-05-04T00:57:02.884Z,6.40
2023-05-04T00:59:30.445Z,6.50
2023-05-04T01:02:00.691Z,6.60
2023-05-04T01:04:29.038Z,6.60
2023-05-04T01:07:27.458Z,6.50
2023-05-04T01:10:10.776Z,6.60
2023-05-04T01:13:04.437Z,6.60
2023-05-04T01:15:32.720Z,6.60
2023-05-04T01:18:00.501Z,6.70
2023-05-04T01:20:29.602Z,6.60
2023-05-04T01:23:01.501Z,6.50
2023-05-04T01:25:46.787Z,6.50
2023-05-04T01:29:06.564Z,6.40
2023-05-04T01:31:44.782Z,6.20
2023-05-04T01:34:13.803Z,6.30
2023-05-04T01:36:44.578Z,6.20
2023-05-04T01:39:15.523Z,6.20
2023-05-04T01:41:43.453Z,6.10
2023-05-04T01:44:13.515Z,6.10
2023-05-04T01:46:41.694Z,6.10
2023-05-04T01:49:16.729Z,5.90
2023-05-04T01:51:46.802Z,6.00
2023-05-04T01:54:14.521Z,5.90
2023-05-04T01:56:44.671Z,5.90
2023-05-04T01:59:15.962Z,5.90
2023-05-04T02:01:45.988Z,5.90
2023-05-04T02:04:13.682Z,5.90
2023-05-04T02:06:41.480Z,5.80
2023-05-04T02:09:16.694Z,5.70
2023-05-04T02:11:47.180Z,5.70
2023-05-04T02:14:14.684Z,5.70
2023-05-04T02:16:43.369Z,5.70
2023-05-04T02:19:11.057Z,5.60
2023-05-04T02:21:48.791Z,5.70
2023-05-04T02:24:16.419Z,5.50
2023-05-04T02:26:43.875Z,5.50
2023-05-04T02:29:13.857Z,5.60
2023-05-04T02:31:44.502Z,5.60
2023-05-04T02:34:15.167Z,5.60
2023-05-04T02:36:45.142Z,5.60
2023-05-04T02:39:13.522Z,5.70
2023-05-04T02:41:40.972Z,5.50
2023-05-04T02:44:08.767Z,5.70
2023-05-04T02:46:38.221Z,5.80
2023-05-04T02:49:06.850Z,5.60
2023-05-04T02:51:34.301Z,5.60
2023-05-04T02:54:09.368Z,5.70
2023-05-04T02:56:37.081Z,5.60
2023-05-04T02:59:04.389Z,5.60
2023-05-04T03:01:43.660Z,5.80
2023-05-04T03:04:11.376Z,5.70
2023-05-04T03:06:42.163Z,5.90
2023-05-04T03:09:12.816Z,5.70
2023-05-04T03:11:40.681Z,5.90
2023-05-04T03:14:11.176Z,5.90
2023-05-04T03:16:38.711Z,6.00
2023-05-04T03:19:11.829Z,5.90
2023-05-04T03:21:46.100Z,6.00
2023-05-04T03:24:41.878Z,6.00
2023-05-04T03:27:09.342Z,5.90
2023-05-04T03:29:39.335Z,6.00
2023-05-04T03:32:11.373Z,6.10
2023-05-04T03:34:51.600Z,6.00
2023-05-04T03:37:19.060Z,6.10
2023-05-04T03:39:46.348Z,6.10
2023-05-04T03:42:16.784Z,6.20
2023-05-04T03:47:33.140Z,6.40
2023-05-04T03:50:00.515Z,6.60
2023-05-04T03:52:30.195Z,6.80
2023-05-04T03:54:58.399Z,7.00
2023-05-04T03:57:28.066Z,7.20
2023-05-04T03:59:59.139Z,7.60
2023-05-04T04:03:01.314Z,7.70
2023-05-04T04:05:43.296Z,7.80
2023-05-04T04:08:29.385Z,7.80
2023-05-04T04:10:57.491Z,7.80
2023-05-04T04:13:30.483Z,7.70
2023-05-04T04:16:09.358Z,7.70
2023-05-04T04:18:39.772Z,7.80
2023-05-04T04:21:10.588Z,7.80
2023-05-04T04:23:41.515Z,7.70
2023-05-04T04:26:09.696Z,7.80
2023-05-04T04:28:37.659Z,7.90
2023-05-04T04:31:21.831Z,8.00
2023-05-04T04:33:53.841Z,8.10
2023-05-04T04:36:24.386Z,8.20
2023-05-04T04:38:52.481Z,8.50
2023-05-04T04:41:22.678Z,8.70
2023-05-04T04:43:50.052Z,8.80
2023-05-04T04:46:22.268Z,8.90
2023-05-04T04:48:57.776Z,8.90
2023-05-04T04:51:40.905Z,8.80
2023-05-04T04:54:09.294Z,8.70
2023-05-04T04:56:44.725Z,8.60
2023-05-04T04:59:14.209Z,8.50
2023-05-04T05:01:45.497Z,8.40
2023-05-04T05:04:22.850Z,8.80
2023-05-04T05:06:58.801Z,10.00
2023-05-04T05:09:26.708Z,11.60
2023-05-04T05:12:04.665Z,13.10
2023-05-04T05:14:34.942Z,14.20
2023-05-04T05:17:08.625Z,15.20
2023-05-04T05:19:51.310Z,16.00
2023-05-04T05:22:28.750Z,16.10
2023-05-04T05:24:59.628Z,16.00
2023-05-04T05:27:33.805Z,15.70
2023-05-04T05:30:09.086Z,15.20
2023-05-04T05:32:39.874Z,14.70
2023-05-04T05:35:09.980Z,14.10
2023-05-04T05:37:39.755Z,13.50
2023-05-04T05:40:13.922Z,12.90
2023-05-04T05:42:47.735Z,12.40
2023-05-04T05:45:15.190Z,11.80
2023-05-04T05:50:35.682Z,11.20
2023-05-04T05:53:03.285Z,10.80
2023-05-04T05:55:31.283Z,10.40
2023-05-04T05:57:59.154Z,10.10
2023-05-04T06:00:28.097Z,10.20
2023-05-04T06:02:57.893Z,10.60
2023-05-04T06:05:26.006Z,11.40
2023-05-04T06:07:58.624Z,12.10
2023-05-04T06:10:29.762Z,12.20
2023-05-04T06:13:05.086Z,12.40
2023-05-04T06:15:37.036Z,12.70
2023-05-04T06:18:07.447Z,13.50
2023-05-04T06:20:37.934Z,14.20
2023-05-04T06:23:06.008Z,14.30
2023-05-04T06:25:42.364Z,14.40
2023-05-04T06:28:12.033Z,14.20
2023-05-04T06:30:42.155Z,14.00
2023-05-04T06:33:09.924Z,13.90
2023-05-04T06:35:39.147Z,13.80
2023-05-04T06:38:11.969Z,13.60
2023-05-04T06:40:40.773Z,13.20
2023-05-04T06:43:17.628Z,12.80
2023-05-04T06:45:45.222Z,12.30
2023-05-04T06:48:18.577Z,11.80
2023-05-04T06:50:46.620Z,11.20
2023-05-04T06:53:16.318Z,10.80
2023-05-04T06:55:50.608Z,10.50
2023-05-04T06:58:22.507Z,10.30
2023-05-04T07:00:53.543Z,10.30
2023-05-04T07:03:24.978Z,10.20
2023-05-04T07:05:59.162Z,10.40
2023-05-04T07:08:29.771Z,10.40
2023-05-04T07:10:59.808Z,10.60
2023-05-04T07:13:38.575Z,10.60
2023-05-04T07:16:12.367Z,10.80
2023-05-04T07:18:44.853Z,11.40
2023-05-04T07:23:55.787Z,12.40
2023-05-04T07:26:30.548Z,12.80
2023-05-04T07:29:03.929Z,13.40
2023-05-04T07:31:36.711Z,14.30
2023-05-04T07:34:05.386Z,15.20
2023-05-04T07:36:42.057Z,16.20
2023-05-04T07:39:16.586Z,17.40
2023-05-04T07:42:00.046Z,18.50
2023-05-04T07:44:29.920Z,19.80
2023-05-04T07:47:01.929Z,20.60
2023-05-04T07:49:30.172Z,21.10
2023-05-04T07:54:55.443Z,21.90
2023-05-04T07:57:23.651Z,22.50
2023-05-04T08:00:02.740Z,23.10
2023-05-04T08:02:33.066Z,24.00
2023-05-04T08:05:03.853Z,25.50
2023-05-04T08:07:35.612Z,26.80
2023-05-04T08:10:08.959Z,27.60
2023-05-04T08:15:28.308Z,28.70
2023-05-04T08:17:56.681Z,28.80
2023-05-04T08:20:26.120Z,28.60
2023-05-04T08:22:58.244Z,28.90
2023-05-04T08:25:29.871Z,29.40
2023-05-04T08:28:01.129Z,29.50
2023-05-04T08:30:31.894Z,29.30
2023-05-04T08:33:00.710Z,29.30
2023-05-04T08:35:31.121Z,29.30
2023-05-04T08:37:59.385Z,28.70
2023-05-04T08:40:28.231Z,27.40
2023-05-04T08:43:11.782Z,27.00
2023-05-04T08:45:42.404Z,27.50
2023-05-04T08:48:17.180Z,28.20
2023-05-04T08:50:48.288Z,28.30
2023-05-04T08:53:24.960Z,28.60
2023-05-04T08:55:56.235Z,29.30
2023-05-04T08:58:34.589Z,29.60
2023-05-04T09:01:02.453Z,29.00
2023-05-04T09:03:36.058Z,28.30
2023-05-04T09:06:06.202Z,27.80
2023-05-04T09:08:40.583Z,27.10
2023-05-04T09:11:11.192Z,27.30
2023-05-04T09:13:58.518Z,27.50
2023-05-04T09:16:39.021Z,28.00
2023-05-04T09:19:20.519Z,28.70
2023-05-04T09:21:54.534Z,29.30
2023-05-04T09:24:31.422Z,29.30
2023-05-04T09:27:20.964Z,28.70
2023-05-04T09:30:06.598Z,28.40
2023-05-04T09:32:50.040Z,28.40
2023-05-04T09:35:32.049Z,27.50
2023-05-04T09:38:01.451Z,27.20
2023-05-04T09:40:38.645Z,26.80
2023-05-04T09:43:08.729Z,26.60
2023-05-04T09:45:46.599Z,25.80
2023-05-04T09:48:26.812Z,25.20
2023-05-04T09:50:59.909Z,24.70
2023-05-04T09:53:29.467Z,24.30
2023-05-04T09:56:18.337Z,23.90
2023-05-04T09:58:46.591Z,23.80
2023-05-04T10:01:15.672Z,23.90
2023-05-04T10:03:53.465Z,23.80
2023-05-04T10:06:30.489Z,23.90
2023-05-04T10:09:17.615Z,24.10
2023-05-04T10:11:49.189Z,23.70
2023-05-04T10:14:17.857Z,23.30
2023-05-04T10:17:17.024Z,23.20
2023-05-04T10:20:07.933Z,23.00
2023-05-04T10:23:02.791Z,22.50
2023-05-04T10:25:47.805Z,21.70
2023-05-04T10:28:41.730Z,20.80
2023-05-04T10:31:09.802Z,20.20
2023-05-04T10:33:41.867Z,19.40
2023-05-04T10:36:21.924Z,18.40
2023-05-04T10:38:49.836Z,17.70
2023-05-04T10:41:18.884Z,17.20
2023-05-04T10:43:56.922Z,16.80
2023-05-04T10:46:28.484Z,16.60
2023-05-04T10:48:57.280Z,16.60
2023-05-04T10:51:35.516Z,16.50
2023-05-04T10:54:18.974Z,16.00
2023-05-04T10:57:07.701Z,15.80
2023-05-04T10:59:36.868Z,15.60
2023-05-04T11:02:08.868Z,15.20
2023-05-04T11:04:42.126Z,14.90
2023-05-04T11:07:11.888Z,14.60
2023-05-04T11:09:48.029Z,14.00
2023-05-04T11:12:18.212Z,13.70
2023-05-04T11:14:50.313Z,13.60
2023-05-04T11:17:28.525Z,13.60
2023-05-04T11:19:57.039Z,13.50
2023-05-04T11:22:28.746Z,13.70
2023-05-04T11:24:59.071Z,13.70
2023-05-04T11:27:31.711Z,13.80
2023-05-04T11:30:03.135Z,13.90
2023-05-04T11:32:52.804Z,13.90
2023-05-04T11:35:25.191Z,13.90
2023-05-04T11:37:56.550Z,13.60
2023-05-04T11:40:25.997Z,13.40
2023-05-04T11:42:57.992Z,13.20
2023-05-04T11:45:30.181Z,13.10
2023-05-04T11:47:58.992Z,13.10
2023-05-04T11:50:33.609Z,13.10
2023-05-04T11:53:12.294Z,13.10
2023-05-04T11:55:41.562Z,13.00
2023-05-04T11:58:14.041Z,12.90
2023-05-04T12:00:48.028Z,12.70
2023-05-04T12:03:18.253Z,12.40
2023-05-04T12:05:51.998Z,12.20
2023-05-04T12:08:37.938Z,12.30
2023-05-04T12:11:26.542Z,12.30
2023-05-04T12:14:34.836Z,12.40
2023-05-04T12:17:04.870Z,12.40
2023-05-04T12:19:32.769Z,12.40
2023-05-04T12:22:06.298Z,12.40
2023-05-04T12:24:34.841Z,12.40
2023-05-04T12:27:08.502Z,12.50
2023-05-04T12:29:45.784Z,12.50
2023-05-04T12:32:16.653Z,12.50
2023-05-04T12:34:48.612Z,12.40
2023-05-04T12:37:18.605Z,12.30
2023-05-04T12:39:46.684Z,12.20
2023-05-04T12:42:19.493Z,12.20
2023-05-04T12:44:56.812Z,12.20
2023-05-04T12:47:26.692Z,12.40
2023-05-04T12:49:56.246Z,12.40
2023-05-04T12:52:24.234Z,12.30
2023-05-04T12:54:57.600Z,12.10
2023-05-04T12:57:24.691Z,12.00
2023-05-04T13:00:25.107Z,12.10
2023-05-04T13:03:02.607Z,11.80
2023-05-04T13:05:31.623Z,11.60
2023-05-04T13:08:15.560Z,11.40
2023-05-04T13:10:43.974Z,11.20
2023-05-04T13:13:23.245Z,11.40
2023-05-04T13:15:52.804Z,11.50
2023-05-04T13:18:20.907Z,11.60
2023-05-04T13:20:50.870Z,11.60
2023-05-04T13:23:21.793Z,11.50
2023-05-04T13:25:55.970Z,11.40
2023-05-04T13:28:26.003Z,11.40
2023-05-04T13:31:07.055Z,11.20
2023-05-04T13:33:45.854Z,11.20
2023-05-04T13:36:20.204Z,11.30
2023-05-04T13:38:50.546Z,11.10
2023-05-04T13:41:18.105Z,11.00
2023-05-04T13:43:48.915Z,10.70
2023-05-04T13:46:23.955Z,10.50
2023-05-04T13:48:51.954Z,10.40
2023-05-04T13:51:21.986Z,10.30
2023-05-04T13:53:54.870Z,10.40
2023-05-04T13:56:22.428Z,10.30
2023-05-04T13:58:53.994Z,10.40
2023-05-04T14:01:27.285Z,10.40
2023-05-04T14:03:55.950Z,10.60
2023-05-04T14:06:43.886Z,10.70
2023-05-04T14:09:11.538Z,10.70
2023-05-04T14:11:44.226Z,10.80
2023-05-04T14:14:15.236Z,10.70
2023-05-04T14:16:45.991Z,10.70
2023-05-04T14:19:16.203Z,10.60
2023-05-04T14:21:47.161Z,10.60
2023-05-04T14:24:15.977Z,10.70
2023-05-04T14:26:46.163Z,10.70
2023-05-04T14:29:16.192Z,10.60
2023-05-04T14:31:43.776Z,10.50
2023-05-04T14:34:14.744Z,10.50
2023-05-04T14:36:48.302Z,10.50
2023-05-04T14:39:16.253Z,10.60
2023-05-04T14:41:44.937Z,10.70
2023-05-04T14:44:13.361Z,10.60
2023-05-04T14:46:44.188Z,10.40
2023-05-04T14:49:24.540Z,10.30
2023-05-04T14:51:56.621Z,10.00
2023-05-04T14:54:24.396Z,10.00
2023-05-04T14:57:03.296Z,9.90
2023-05-04T14:59:33.384Z,9.90
2023-05-04T15:02:02.462Z,9.70
2023-05-04T15:04:33.343Z,9.80
2023-05-04T15:07:01.474Z,9.60
2023-05-04T15:09:29.500Z,9.40
2023-05-04T15:12:00.304Z,9.20
2023-05-04T15:14:28.377Z,9.30
2023-05-04T15:16:56.453Z,9.30
2023-05-04T15:19:53.457Z,9.40
2023-05-04T15:22:22.715Z,9.50
2023-05-04T15:24:52.380Z,9.60
2023-05-04T15:27:21.069Z,9.50
2023-05-04T15:29:48.895Z,9.40
2023-05-04T15:32:19.367Z,9.30
2023-05-04T15:34:57.219Z,9.30
2023-05-04T15:37:33.845Z,9.30
2023-05-04T15:40:05.024Z,9.30
2023-05-04T15:42:32.740Z,9.30
2023-05-04T15:45:05.513Z,9.30
2023-05-04T15:47:33.465Z,9.30
2023-05-04T15:50:07.834Z,9.30
2023-05-04T15:52:35.840Z,9.30
2023-05-04T15:55:23.538Z,9.30
2023-05-04T15:58:03.428Z,9.20
2023-05-04T16:00:34.748Z,9.30
2023-05-04T16:03:03.035Z,9.20
2023-05-04T16:05:38.122Z,9.20
2023-05-04T16:08:06.816Z,9.10
2023-05-04T16:10:51.244Z,9.00
2023-05-04T16:13:21.988Z,8.90
2023-05-04T16:15:52.867Z,8.80
2023-05-04T16:18:24.003Z,8.70
2023-05-04T16:20:55.700Z,8.60
2023-05-04T16:23:23.122Z,8.50
2023-05-04T16:25:53.958Z,8.50
2023-05-04T16:28:22.080Z,8.60
2023-05-04T16:30:50.428Z,8.60
2023-05-04T16:33:19.330Z,8.60
2023-05-04T16:35:49.187Z,8.50
2023-05-04T16:38:19.771Z,8.40
2023-05-04T16:40:47.332Z,8.40
2023-05-04T16:43:18.535Z,8.30
2023-05-04T16:45:48.573Z,8.20
2023-05-04T16:48:16.331Z,8.10
2023-05-04T16:50:51.459Z,8.10
2023-05-04T16:53:19.686Z,7.90
2023-05-04T16:56:00.659Z,7.90
2023-05-04T16:58:34.243Z,7.90
2023-05-04T17:01:02.362Z,7.90
2023-05-04T17:03:33.964Z,7.70
2023-05-04T17:06:02.698Z,7.70
2023-05-04T17:08:37.339Z,7.70
2023-05-04T17:11:06.286Z,7.80
2023-05-04T17:14:06.385Z,7.80
2023-05-04T17:16:35.903Z,7.80
2023-05-04T17:19:05.814Z,7.70
2023-05-04T17:21:39.710Z,7.80
2023-05-04T17:24:10.596Z,7.70
2023-05-04T17:26:40.871Z,7.80
2023-05-04T17:29:16.854Z,7.60
2023-05-04T17:31:44.777Z,7.40
2023-05-04T17:34:18.336Z,7.70
2023-05-04T17:36:49.106Z,7.40
2023-05-04T17:39:19.808Z,7.40
2023-05-04T17:42:03.029Z,7.30
2023-05-04T17:44:34.797Z,7.20
2023-05-04T17:47:07.266Z,7.20
2023-05-04T17:49:40.224Z,7.00
2023-05-04T17:52:18.684Z,6.80
2023-05-04T17:54:48.832Z,6.90
2023-05-04T17:57:19.330Z,6.80
2023-05-04T17:59:52.801Z,6.90
2023-05-04T18:02:24.832Z,6.60
2023-05-04T18:04:52.468Z,6.70
2023-05-04T18:07:20.435Z,6.60
2023-05-04T18:09:51.826Z,6.60
2023-05-04T18:12:23.959Z,6.60
2023-05-04T18:14:57.601Z,6.50
2023-05-04T18:17:30.193Z,6.50
2023-05-04T18:19:58.190Z,6.60
2023-05-04T18:22:30.495Z,6.40
2023-05-04T18:24:59.549Z,6.30
2023-05-04T18:27:33.947Z,6.30
2023-05-04T18:30:04.183Z,6.20
2023-05-04T18:32:38.015Z,6.00
2023-05-04T18:35:09.522Z,6.30
2023-05-04T18:37:42.607Z,6.20
2023-05-04T18:40:15.658Z,6.10
2023-05-04T18:42:49.722Z,5.90
2023-05-04T18:45:23.465Z,6.10
2023-05-04T18:47:56.898Z,6.00
2023-05-04T18:50:24.608Z,6.00
2023-05-04T18:52:54.421Z,6.00
2023-05-04T18:55:25.918Z,6.00
2023-05-04T18:57:55.858Z,5.90
2023-05-04T19:00:31.865Z,6.00
2023-05-04T19:03:00.814Z,5.80
2023-05-04T19:05:28.884Z,5.70
2023-05-04T19:07:59.668Z,5.90
2023-05-04T19:10:33.177Z,5.70
2023-05-04T19:13:02.967Z,5.80
2023-05-04T19:15:38.934Z,5.80
2023-05-04T19:18:09.092Z,5.70
2023-05-04T19:20:43.214Z,5.90
2023-05-04T19:23:13.749Z,5.70
2023-05-04T19:25:41.150Z,5.70
2023-05-04T19:28:10.592Z,5.70
2023-05-04T19:30:42.119Z,5.50
2023-05-04T19:33:23.181Z,5.70
2023-05-04T19:35:51.464Z,5.50
2023-05-04T19:38:19.169Z,5.50
2023-05-04T19:40:50.113Z,5.60
2023-05-04T19:43:39.694Z,5.60
2023-05-04T19:46:09.898Z,5.70
2023-05-04T19:48:40.108Z,5.60
2023-05-04T19:51:14.205Z,5.30
2023-05-04T19:53:44.986Z,5.50
2023-05-04T19:56:23.173Z,5.50
2023-05-04T19:58:52.640Z,5.40
2023-05-04T20:01:37.100Z,5.40
2023-05-04T20:04:08.425Z,5.50
2023-05-04T20:06:39.450Z,5.50
2023-05-04T20:09:11.218Z,5.40
2023-05-04T20:11:44.783Z,5.30
2023-05-04T20:14:12.360Z,5.30
2023-05-04T20:16:46.175Z,5.40
2023-05-04T20:19:15.180Z,5.40
2023-05-04T20:21:43.643Z,5.30
2023-05-04T20:24:18.345Z,5.20
2023-05-04T20:26:46.195Z,5.20
2023-05-04T20:29:13.590Z,5.30
2023-05-04T20:31:52.714Z,5.30
2023-05-04T20:34:22.698Z,5.20
2023-05-04T20:36:53.622Z,5.10
2023-05-04T20:39:23.893Z,5.20
2023-05-04T20:41:54.441Z,5.20
2023-05-04T20:44:23.850Z,5.00
2023-05-04T20:46:51.638Z,5.20
2023-05-04T20:49:18.930Z,5.20
2023-05-04T20:51:46.908Z,5.20
2023-05-04T20:54:16.836Z,5.20
2023-05-04T20:56:44.887Z,5.10
2023-05-04T20:59:12.746Z,5.00
2023-05-04T21:01:40.538Z,5.10
2023-05-04T21:04:11.658Z,5.10
2023-05-04T21:06:38.921Z,5.00
2023-05-04T21:09:07.814Z,5.00
2023-05-04T21:11:37.755Z,4.90
2023-05-04T21:14:14.855Z,4.90
2023-05-04T21:16:45.602Z,4.90
2023-05-04T21:19:17.923Z,4.80
2023-05-04T21:21:45.967Z,4.90
2023-05-04T21:24:16.678Z,4.90
2023-05-04T21:26:46.825Z,4.90
2023-05-04T21:29:17.036Z,4.80
2023-05-04T21:31:44.939Z,4.60
2023-05-04T21:34:35.485Z,4.80
2023-05-04T21:37:08.936Z,4.80
2023-05-04T21:39:36.843Z,4.80
2023-05-04T21:42:11.100Z,4.60
2023-05-04T21:47:39.569Z,4.30
2023-05-04T21:50:10.121Z,4.50
2023-05-04T21:52:37.992Z,4.40
2023-05-04T21:55:08.727Z,4.40
2023-05-04T21:57:36.285Z,4.30
2023-05-04T22:00:15.626Z,4.20
2023-05-04T22:02:46.753Z,4.20
2023-05-04T22:05:18.263Z,4.20
2023-05-04T22:07:45.901Z,4.30
2023-05-04T22:10:16.110Z,4.10
2023-05-04T22:12:44.117Z,4.10
2023-05-04T22:15:13.030Z,4.10
2023-05-04T22:17:44.034Z,4.10
2023-05-04T22:20:17.226Z,3.90
2023-05-04T22:22:45.036Z,4.00
2023-05-04T22:25:12.409Z,4.00
2023-05-04T22:27:46.318Z,4.10
2023-05-04T22:30:14.485Z,4.00
2023-05-04T22:33:04.480Z,3.90
2023-05-04T22:35:34.509Z,3.80
2023-05-04T22:38:02.277Z,3.70
2023-05-04T22:40:35.820Z,3.70
2023-05-04T22:43:14.440Z,3.70
2023-05-04T22:45:45.232Z,3.90
2023-05-04T22:48:14.321Z,3.60
2023-05-04T22:50:44.807Z,3.70
2023-05-04T22:53:14.690Z,3.80
2023-05-04T22:55:42.373Z,3.80
2023-05-04T22:58:09.845Z,3.70
2023-05-04T23:00:39.721Z,3.60
2023-05-04T23:03:11.353Z,3.80
2023-05-04T23:05:38.733Z,3.60
2023-05-04T23:08:11.729Z,3.60
2023-05-04T23:10:54.463Z,3.70
2023-05-04T23:13:22.924Z,3.60
2023-05-04T23:15:55.808Z,3.50
2023-05-04T23:18:25.463Z,3.70
2023-05-04T23:20:53.132Z,3.50
2023-05-04T23:23:25.985Z,3.30
2023-05-04T23:25:58.893Z,3.50
2023-05-04T23:28:28.410Z,3.40
2023-05-04T23:30:56.147Z,3.60
2023-05-04T23:33:23.950Z,3.60
2023-05-04T23:35:58.236Z,3.80
2023-05-04T23:38:26.062Z,3.70
2023-05-04T23:41:02.532Z,3.60
2023-05-04T23:43:33.130Z,3.70
2023-05-04T23:46:02.069Z,3.50
2023-05-04T23:48:52.934Z,3.60
2023-05-04T23:51:21.298Z,3.50
2023-05-04T23:53:49.001Z,3.40
2023-05-04T23:56:16.111Z,3.60
2023-05-04T23:58:43.270Z,3.50
